Time;durP1;ratioP1;P1;durP2;ratioP2;P2;SDS_P1;SDS_P2;PMS_P1;PMS_P2;Temp;Humidity;BMP_temperature;BMP_pressure;BME280_temperature;BME280_humidity;BME280_pressure;Samples;Min_cycle;Max_cycle;Signal;HPM_P1;HPM_P2
2021/12/11 00:01:18;;;;;;;1667.43;761.45;;;;;;;;;;4975180;28;20034;-91
2021/12/11 00:04:00;;;;;;;1605.88;757.17;;;;;;;;;;4966885;28;20029;-93
2021/12/11 00:06:29;;;;;;;;;;;;;;;;;;4983539;28;20061;-92
2021/12/11 00:08:57;;;;;;;1999.90;999.90;;;;;;;;;;4982519;28;20367;-91
2021/12/11 00:11:34;;;;;;;1999.90;999.90;;;;;;;;;;4982377;28;20061;-91
2021/12/11 00:14:01;;;;;;;1119.55;509.92;;;;;;;;;;4981413;28;20033;-91
2021/12/11 00:16:28;;;;;;;1999.90;999.90;;;;;;;;;;4979260;28;20022;-91
2021/12/11 00:19:05;;;;;;;1999.90;999.90;;;;;;;;;;4963445;28;20393;-91
2021/12/11 00:21:31;;;;;;;1999.90;999.90;;;;;;;;;;4957777;28;20022;-90
2021/12/11 00:24:12;;;;;;;1999.90;999.90;;;;;;;;;;4978631;28;20034;-90
2021/12/11 00:26:45;;;;;;;1999.90;999.90;;;;;;;;;;4978619;28;20409;-89
2021/12/11 00:29:15;;;;;;;1999.90;999.90;;;;;;;;;;4962608;28;20030;-89
2021/12/11 00:31:47;;;;;;;1999.90;999.90;;;;;;;;;;4975100;28;20042;-89
2021/12/11 00:34:15;;;;;;;1624.68;759.28;;;;;;;;;;4962519;28;20038;-88
2021/12/11 00:36:52;;;;;;;1655.47;760.35;;;;;;;;;;4965546;28;20105;-88
2021/12/11 00:39:18;;;;;;;1566.82;754.13;;;;;;;;;;4982256;28;20034;-85
2021/12/11 00:41:51;;;;;;;1631.03;758.92;;;;;;;;;;4980107;28;20483;-85
2021/12/11 00:44:19;;;;;;;1441.13;539.80;;;;;;;;;;4966306;28;20029;-85
2021/12/11 00:46:44;;;;;;;1999.90;999.90;;;;;;;;;;4964221;28;20034;-85
2021/12/11 00:49:15;;;;;;;1999.90;999.90;;;;;;;;;;4980047;28;20488;-85
2021/12/11 00:51:48;;;;;;;1999.90;999.90;;;;;;;;;;4996567;28;20038;-85
2021/12/11 00:54:14;;;;;;;1140.63;509.75;;;;;;;;;;4980950;28;20030;-85
2021/12/11 00:56:40;;;;;;;1999.90;999.90;;;;;;;;;;4980204;28;20096;-84
2021/12/11 00:59:08;;;;;;;1999.90;999.90;;;;;;;;;;4980054;28;20034;-84
2021/12/11 01:01:39;;;;;;;1242.13;515.80;;;;;;;;;;4980043;28;20381;-85
2021/12/11 01:04:17;;;;;;;1999.90;999.90;;;;;;;;;;4979767;28;20038;-85
2021/12/11 01:06:51;;;;;;;1677.63;770.55;;;;;;;;;;4979968;28;20038;-90
2021/12/11 01:09:21;;;;;;;1999.90;999.90;;;;;;;;;;4981013;28;20034;-89
2021/12/11 01:11:51;;;;;;;1999.90;999.90;;;;;;;;;;4997043;28;20037;-90
2021/12/11 01:14:35;;;;;;;1999.90;999.90;;;;;;;;;;5013249;28;20038;-89
2021/12/11 01:17:06;;;;;;;1999.90;999.90;;;;;;;;;;4966083;28;20507;-90
2021/12/11 01:19:38;;;;;;;1556.55;754.28;;;;;;;;;;5013548;28;20083;-90
2021/12/11 01:22:22;;;;;;;1999.90;999.90;;;;;;;;;;4981369;28;20045;-90
2021/12/11 01:24:51;;;;;;;1999.90;999.90;;;;;;;;;;4967746;28;20049;-91
2021/12/11 01:27:21;;;;;;;1575.20;756.33;;;;;;;;;;4981652;28;20033;-91
2021/12/11 01:29:48;;;;;;;1999.90;999.90;;;;;;;;;;5013463;28;20084;-92
2021/12/11 01:32:15;;;;;;;1999.90;999.90;;;;;;;;;;4981020;28;20033;-90
2021/12/11 01:34:43;;;;;;;1999.90;999.90;;;;;;;;;;4980555;28;20034;-91
2021/12/11 01:37:09;;;;;;;1999.90;999.90;;;;;;;;;;4980755;28;20041;-90
2021/12/11 01:39:35;;;;;;;1999.90;999.90;;;;;;;;;;4980216;28;20018;-90
2021/12/11 01:42:06;;;;;;;1999.90;999.90;;;;;;;;;;4980321;28;20037;-90
2021/12/11 01:44:34;;;;;;;1999.90;999.90;;;;;;;;;;4994060;28;20057;-91
2021/12/11 01:47:10;;;;;;;1999.90;999.90;;;;;;;;;;4967132;28;20038;-90
2021/12/11 01:49:43;;;;;;;1999.90;999.90;;;;;;;;;;4978353;28;20389;-90
2021/12/11 01:52:11;;;;;;;;;;;;;;;;;;4975692;28;20050;-89
2021/12/11 01:54:41;;;;;;;1999.90;999.90;;;;;;;;;;5003700;28;20415;-90
2021/12/11 01:57:22;;;;;;;1999.90;999.90;;;;;;;;;;4960840;28;20026;-90
2021/12/11 02:00:10;;;;;;;1999.90;999.90;;;;;;;;;;4972456;28;20107;-91
2021/12/11 02:02:47;;;;;;;1999.90;999.90;;;;;;;;;;4995523;28;20559;-90
2021/12/11 02:05:24;;;;;;;1999.90;999.90;;;;;;;;;;4961905;28;20035;-90
2021/12/11 02:07:52;;;;;;;1999.90;999.90;;;;;;;;;;4980000;28;20037;-90
2021/12/11 02:10:30;;;;;;;1999.90;999.90;;;;;;;;;;4964377;28;20034;-90
2021/12/11 02:12:56;;;;;;;1999.90;999.90;;;;;;;;;;4964199;28;20026;-89
2021/12/11 02:15:32;;;;;;;1999.90;999.90;;;;;;;;;;4961942;28;20041;-90
2021/12/11 02:18:20;;;;;;;1999.90;999.90;;;;;;;;;;4991226;28;20041;-89
2021/12/11 02:20:52;;;;;;;1999.90;999.90;;;;;;;;;;5012456;28;20464;-90
2021/12/11 02:23:17;;;;;;;1999.90;999.90;;;;;;;;;;4980598;28;20029;-90
2021/12/11 02:25:49;;;;;;;1999.90;999.90;;;;;;;;;;4964120;28;20042;-90
2021/12/11 02:28:19;;;;;;;1999.90;999.90;;;;;;;;;;4980266;28;20048;-89
2021/12/11 02:31:12;;;;;;;1999.90;999.90;;;;;;;;;;4979766;28;20060;-89
2021/12/11 02:33:56;;;;;;;;;;;;;;;;;;4980249;28;20030;-90
2021/12/11 02:36:30;;;;;;;1999.90;999.90;;;;;;;;;;5012067;28;19925;-89
2021/12/11 02:39:19;;;;;;;1999.90;999.90;;;;;;;;;;4996231;28;20037;-90
2021/12/11 02:42:06;;;;;;;1999.90;999.90;;;;;;;;;;4982116;28;20030;-89
2021/12/11 02:44:35;;;;;;;1999.90;999.90;;;;;;;;;;4996003;28;20030;-89
2021/12/11 02:47:20;;;;;;;1999.90;999.90;;;;;;;;;;4979765;28;20235;-89
2021/12/11 02:49:50;;;;;;;1999.90;999.90;;;;;;;;;;4995832;28;20065;-89
2021/12/11 02:52:20;;;;;;;1193.55;514.45;;;;;;;;;;4979513;28;20057;-88
2021/12/11 02:55:07;;;;;;;1999.90;999.90;;;;;;;;;;4979642;28;20034;-88
2021/12/11 02:57:39;;;;;;;1999.90;999.90;;;;;;;;;;4976161;28;20113;-89
2021/12/11 03:00:09;;;;;;;1999.90;999.90;;;;;;;;;;4959767;28;20050;-88
2021/12/11 03:02:45;;;;;;;1999.90;999.90;;;;;;;;;;4979291;28;20109;-88
2021/12/11 03:05:15;;;;;;;1999.90;999.90;;;;;;;;;;4964369;28;20500;-89
2021/12/11 03:07:44;;;;;;;1999.90;999.90;;;;;;;;;;4963776;28;20061;-88
2021/12/11 03:10:13;;;;;;;1122.20;509.33;;;;;;;;;;4980163;28;20033;-88
2021/12/11 03:12:44;;;;;;;1999.90;999.90;;;;;;;;;;4979326;28;20546;-88
2021/12/11 03:15:11;;;;;;;1571.60;755.20;;;;;;;;;;4985534;28;20034;-88
2021/12/11 03:17:38;;;;;;;1999.90;999.90;;;;;;;;;;4959881;28;20034;-87
2021/12/11 03:20:06;;;;;;;1999.90;999.90;;;;;;;;;;4973380;28;20031;-87
2021/12/11 03:22:33;;;;;;;1999.90;999.90;;;;;;;;;;4959761;28;20057;-87
2021/12/11 03:25:02;;;;;;;1564.38;754.08;;;;;;;;;;4979350;28;20026;-87
2021/12/11 03:27:29;;;;;;;1999.90;999.90;;;;;;;;;;4979202;28;20519;-87
2021/12/11 03:29:55;;;;;;;1999.90;999.90;;;;;;;;;;4965749;28;20050;-87
2021/12/11 03:32:22;;;;;;;1999.90;999.90;;;;;;;;;;4982721;28;20036;-87
2021/12/11 03:34:50;;;;;;;1999.90;999.90;;;;;;;;;;4999199;28;20030;-88
2021/12/11 03:37:16;;;;;;;1133.65;510.50;;;;;;;;;;4999110;28;20064;-87
2021/12/11 03:39:46;;;;;;;1612.65;761.45;;;;;;;;;;4979677;28;20030;-88
2021/12/11 03:42:14;;;;;;;1999.90;999.90;;;;;;;;;;4947675;28;20117;-88
2021/12/11 03:44:41;;;;;;;1999.90;999.90;;;;;;;;;;4979847;28;20473;-88
2021/12/11 03:47:13;;;;;;;1999.90;999.90;;;;;;;;;;4979406;28;20121;-89
2021/12/11 03:49:42;;;;;;;;;;;;;;;;;;4980821;28;20049;-89
2021/12/11 03:52:09;;;;;;;1999.90;999.90;;;;;;;;;;5011994;28;20000;-89
2021/12/11 03:54:39;;;;;;;1999.90;999.90;;;;;;;;;;4966381;28;20033;-90
2021/12/11 03:57:08;;;;;;;1999.90;999.90;;;;;;;;;;4992998;28;20026;-90
2021/12/11 03:59:33;;;;;;;1999.90;999.90;;;;;;;;;;4962981;28;20058;-89
2021/12/11 04:02:09;;;;;;;1999.90;999.90;;;;;;;;;;4947128;28;20556;-90
2021/12/11 04:04:40;;;;;;;1999.90;999.90;;;;;;;;;;4948188;28;20058;-90
2021/12/11 04:07:08;;;;;;;1999.90;999.90;;;;;;;;;;4955702;28;20392;-90
2021/12/11 04:09:37;;;;;;;1999.90;999.90;;;;;;;;;;4966510;28;20034;-90
2021/12/11 04:12:04;;;;;;;1999.90;999.90;;;;;;;;;;4966059;28;20026;-89
2021/12/11 04:14:33;;;;;;;1272.28;517.90;;;;;;;;;;4982098;28;20061;-90
2021/12/11 04:17:00;;;;;;;1999.90;999.90;;;;;;;;;;4982560;28;20040;-89
2021/12/11 04:19:28;;;;;;;1999.90;999.90;;;;;;;;;;4982416;28;20547;-90
2021/12/11 04:21:55;;;;;;;1999.90;999.90;;;;;;;;;;4982111;28;20100;-90
2021/12/11 04:24:25;;;;;;;1999.90;999.90;;;;;;;;;;4998375;28;20030;-90
2021/12/11 04:26:54;;;;;;;1999.90;999.90;;;;;;;;;;4963160;28;20480;-90
2021/12/11 04:29:21;;;;;;;1999.90;999.90;;;;;;;;;;4975551;28;20081;-90
2021/12/11 04:31:50;;;;;;;1999.90;999.90;;;;;;;;;;4978540;28;20120;-90
2021/12/11 04:34:18;;;;;;;1999.90;999.90;;;;;;;;;;4962895;28;20697;-89
2021/12/11 04:36:49;;;;;;;1580.63;755.20;;;;;;;;;;4978743;28;20038;-89
2021/12/11 04:39:18;;;;;;;1608.45;758.38;;;;;;;;;;4978686;28;20038;-89
2021/12/11 04:42:01;;;;;;;1999.90;999.90;;;;;;;;;;4961364;28;20073;-89
2021/12/11 04:44:37;;;;;;;1999.90;999.90;;;;;;;;;;4964271;28;20038;-88
2021/12/11 04:47:34;;;;;;;1999.90;999.90;;;;;;;;;;4979553;28;20041;-89
2021/12/11 04:50:13;;;;;;;1999.90;999.90;;;;;;;;;;4966661;28;20038;-89
2021/12/11 04:52:54;;;;;;;1999.90;999.90;;;;;;;;;;4965539;28;20136;-88
2021/12/11 04:58:45;;;;;;;1999.90;999.90;;;;;;;;;;4994891;28;20046;-88
2021/12/11 05:06:27;;;;;;;1999.90;999.90;;;;;;;;;;4998068;28;20041;-88
2021/12/11 05:11:39;;;;;;;1999.90;999.90;;;;;;;;;;5013023;28;20030;-88
2021/12/11 05:14:08;;;;;;;1999.90;999.90;;;;;;;;;;4982601;28;20018;-88
2021/12/11 05:16:34;;;;;;;1999.90;999.90;;;;;;;;;;4964983;28;20025;-87
2021/12/11 05:18:59;;;;;;;1999.90;999.90;;;;;;;;;;4961106;28;20378;-87
2021/12/11 05:21:26;;;;;;;1686.38;764.22;;;;;;;;;;4977722;28;20034;-87
2021/12/11 05:23:52;;;;;;;1999.90;999.90;;;;;;;;;;4945635;28;20072;-87
2021/12/11 05:26:19;;;;;;;1999.90;999.90;;;;;;;;;;4961213;28;20057;-87
2021/12/11 05:28:46;;;;;;;1999.90;999.90;;;;;;;;;;4977680;28;20030;-87
2021/12/11 05:31:14;;;;;;;1999.90;999.90;;;;;;;;;;4944974;28;20045;-87
2021/12/11 05:33:42;;;;;;;1999.90;999.90;;;;;;;;;;4945472;28;20473;-87
2021/12/11 05:36:10;;;;;;;1999.90;999.90;;;;;;;;;;4977214;28;20125;-87
2021/12/11 05:38:39;;;;;;;1999.90;999.90;;;;;;;;;;4977173;28;20064;-87
2021/12/11 05:41:09;;;;;;;1999.90;999.90;;;;;;;;;;4977450;28;20038;-87
2021/12/11 05:43:38;;;;;;;1999.90;999.90;;;;;;;;;;4954856;28;20500;-88
2021/12/11 05:46:06;;;;;;;1999.90;999.90;;;;;;;;;;4993467;28;20038;-88
2021/12/11 05:48:32;;;;;;;1999.90;999.90;;;;;;;;;;4980569;28;20030;-88
2021/12/11 05:51:00;;;;;;;1999.90;999.90;;;;;;;;;;4963565;28;20042;-88
2021/12/11 05:53:28;;;;;;;1999.90;999.90;;;;;;;;;;4979356;28;20030;-87
2021/12/11 05:55:57;;;;;;;1147.00;518.72;;;;;;;;;;4980091;28;20044;-88
2021/12/11 06:01:09;;;;;;;1999.90;999.90;;;;;;;;;;4998522;28;20129;-88
2021/12/11 06:03:37;;;;;;;1999.90;999.90;;;;;;;;;;4979868;28;20069;-87
2021/12/11 06:06:05;;;;;;;1999.90;999.90;;;;;;;;;;4980543;28;20084;-88
2021/12/11 06:08:32;;;;;;;1999.90;999.90;;;;;;;;;;4995797;28;20103;-88
2021/12/11 06:10:58;;;;;;;1999.90;999.90;;;;;;;;;;4995999;28;20163;-80
2021/12/11 06:13:25;;;;;;;1999.90;999.90;;;;;;;;;;4978902;28;20026;-80
2021/12/11 06:15:54;;;;;;;1999.90;999.90;;;;;;;;;;4989304;28;20034;-80
2021/12/11 06:18:19;;;;;;;1999.90;999.90;;;;;;;;;;4960312;28;20427;-80
2021/12/11 06:20:47;;;;;;;1999.90;999.90;;;;;;;;;;4978584;28;20033;-79
2021/12/11 06:23:13;;;;;;;1999.90;999.90;;;;;;;;;;4993915;28;20488;-81
2021/12/11 06:25:39;;;;;;;1098.55;510.77;;;;;;;;;;4991865;28;20038;-82
2021/12/11 06:28:05;;;;;;;1999.90;999.90;;;;;;;;;;4976482;28;20112;-82
2021/12/11 06:30:30;;;;;;;1999.90;999.90;;;;;;;;;;5008489;28;20064;-83
2021/12/11 06:32:56;;;;;;;1999.90;999.90;;;;;;;;;;4974928;28;20046;-83
2021/12/11 06:35:32;;;;;;;1999.90;999.90;;;;;;;;;;4948024;28;20046;-82
2021/12/11 06:37:58;;;;;;;1999.90;999.90;;;;;;;;;;4978970;28;20030;-82
2021/12/11 06:40:24;;;;;;;1999.90;999.90;;;;;;;;;;4993498;28;20098;-81
2021/12/11 06:42:51;;;;;;;1999.90;999.90;;;;;;;;;;4994520;28;20064;-81
2021/12/11 06:45:17;;;;;;;1999.90;999.90;;;;;;;;;;4978509;28;20037;-80
2021/12/11 06:47:42;;;;;;;1999.90;999.90;;;;;;;;;;4962387;28;20021;-85
2021/12/11 06:50:14;;;;;;;1576.22;754.67;;;;;;;;;;4961971;28;20396;-86
2021/12/11 06:52:40;;;;;;;1999.90;999.90;;;;;;;;;;4962334;28;20065;-83
2021/12/11 06:55:06;;;;;;;1576.55;755.13;;;;;;;;;;4977842;28;20052;-79
2021/12/11 06:57:31;;;;;;;1999.90;999.90;;;;;;;;;;4978492;28;20026;-80
2021/12/11 06:59:57;;;;;;;1999.90;999.90;;;;;;;;;;4977016;28;20034;-84
2021/12/11 07:02:25;;;;;;;1615.28;763.28;;;;;;;;;;4978865;28;20041;-87
2021/12/11 07:04:54;;;;;;;1999.90;999.90;;;;;;;;;;4981772;28;20033;-86
2021/12/11 07:07:25;;;;;;;1999.90;999.90;;;;;;;;;;4999068;28;20081;-86
2021/12/11 07:09:51;;;;;;;1999.90;999.90;;;;;;;;;;4999283;28;20029;-86
2021/12/11 07:12:19;;;;;;;1999.90;999.90;;;;;;;;;;4982709;28;20036;-86
2021/12/11 07:14:46;;;;;;;1118.28;509.77;;;;;;;;;;4982207;28;20053;-86
2021/12/11 07:17:12;;;;;;;1999.90;999.90;;;;;;;;;;4990805;28;20108;-85
2021/12/11 07:19:38;;;;;;;372.65;22.65;;;;;;;;;;4961289;28;20464;-83
2021/12/11 07:22:04;;;;;;;1999.90;999.90;;;;;;;;;;4978498;28;20037;-81
2021/12/11 07:24:48;;;;;;;1999.90;999.90;;;;;;;;;;4995185;28;20037;-81
2021/12/11 07:27:13;;;;;;;1999.90;999.90;;;;;;;;;;4981888;28;20026;-81
2021/12/11 07:29:39;;;;;;;1999.90;999.90;;;;;;;;;;4996754;28;20365;-82
2021/12/11 07:32:05;;;;;;;1999.90;999.90;;;;;;;;;;4981397;28;20112;-81
2021/12/11 07:34:31;;;;;;;1999.90;999.90;;;;;;;;;;4981083;28;20033;-81
2021/12/11 07:36:57;;;;;;;1999.90;999.90;;;;;;;;;;4997269;28;20043;-81
2021/12/11 07:39:22;;;;;;;1999.90;999.90;;;;;;;;;;4997714;28;20216;-81
2021/12/11 07:41:48;;;;;;;1999.90;999.90;;;;;;;;;;5013139;28;20393;-81
2021/12/11 07:44:14;;;;;;;1588.95;755.40;;;;;;;;;;4984018;28;20095;-81
2021/12/11 07:46:40;;;;;;;1999.90;999.90;;;;;;;;;;4984625;28;20041;-81
2021/12/11 07:49:05;;;;;;;1999.90;999.90;;;;;;;;;;4984762;28;20120;-81
2021/12/11 07:51:33;;;;;;;1999.90;999.90;;;;;;;;;;5016915;28;20033;-81
2021/12/11 07:53:58;;;;;;;1999.90;999.90;;;;;;;;;;4984898;28;20033;-82
2021/12/11 07:56:24;;;;;;;1999.90;999.90;;;;;;;;;;5016887;28;20511;-80
2021/12/11 07:58:52;;;;;;;1999.90;999.90;;;;;;;;;;5000543;28;20040;-81
2021/12/11 08:01:19;;;;;;;1999.90;999.90;;;;;;;;;;5000449;28;20037;-81
2021/12/11 08:03:47;;;;;;;1999.90;999.90;;;;;;;;;;5001006;28;20394;-81
2021/12/11 08:06:15;;;;;;;1999.90;999.90;;;;;;;;;;4997769;28;20151;-81
2021/12/11 08:08:41;;;;;;;1999.90;999.90;;;;;;;;;;4997803;28;20120;-80
2021/12/11 08:11:13;;;;;;;1999.90;999.90;;;;;;;;;;5000109;28;20037;-80
2021/12/11 08:13:40;;;;;;;1999.90;999.90;;;;;;;;;;4985094;28;20033;-81
2021/12/11 08:16:05;;;;;;;1999.90;999.90;;;;;;;;;;4978263;28;20057;-80
2021/12/11 08:18:30;;;;;;;1999.90;999.90;;;;;;;;;;4977645;28;20465;-80
2021/12/11 08:20:56;;;;;;;1999.90;999.90;;;;;;;;;;5009965;28;20030;-80
2021/12/11 08:23:22;;;;;;;1999.90;999.90;;;;;;;;;;4977644;28;20042;-80
2021/12/11 08:25:47;;;;;;;1999.90;999.90;;;;;;;;;;4977641;28;20027;-80
2021/12/11 08:28:15;;;;;;;1999.90;999.90;;;;;;;;;;4993994;28;20374;-80
2021/12/11 08:30:42;;;;;;;1581.22;755.40;;;;;;;;;;4976855;28;20038;-80
2021/12/11 08:33:07;;;;;;;1999.90;999.90;;;;;;;;;;4977401;28;20042;-81
2021/12/11 08:35:33;;;;;;;1999.90;999.90;;;;;;;;;;4977675;28;20035;-80
2021/12/11 08:37:59;;;;;;;1999.90;999.90;;;;;;;;;;4977222;28;20468;-79
2021/12/11 08:40:26;;;;;;;1562.18;754.17;;;;;;;;;;5000356;28;20037;-80
2021/12/11 08:42:55;;;;;;;1999.90;999.90;;;;;;;;;;4983932;28;20051;-80
2021/12/11 08:45:24;;;;;;;1999.90;999.90;;;;;;;;;;4984077;28;20033;-80
2021/12/11 08:47:56;;;;;;;1999.90;999.90;;;;;;;;;;5000657;28;20068;-80
2021/12/11 08:50:22;;;;;;;;;;;;;;;;;;5000776;28;20030;-79
2021/12/11 08:52:49;;;;;;;1999.90;999.90;;;;;;;;;;5032770;28;19917;-79
2021/12/11 08:55:25;;;;;;;1684.15;765.00;;;;;;;;;;4983603;28;20127;-79
2021/12/11 08:57:51;;;;;;;1158.88;509.60;;;;;;;;;;4984609;28;20065;-79
2021/12/11 09:00:47;;;;;;;1999.90;999.90;;;;;;;;;;4999154;28;20159;-79
2021/12/11 09:03:27;;;;;;;1576.78;759.13;;;;;;;;;;5015149;28;20033;-80
2021/12/11 09:06:08;;;;;;;1999.90;999.90;;;;;;;;;;4982914;28;20040;-79
2021/12/11 09:08:34;;;;;;;1999.90;999.90;;;;;;;;;;4999165;28;20037;-80
2021/12/11 09:11:04;;;;;;;1690.47;762.55;;;;;;;;;;5030166;28;20046;-79
2021/12/11 09:13:38;;;;;;;1800.35;775.35;;;;;;;;;;4982460;28;20030;-79
2021/12/11 09:16:17;;;;;;;1999.90;999.90;;;;;;;;;;4981713;28;20045;-79
2021/12/11 09:18:53;;;;;;;1999.90;999.90;;;;;;;;;;4996577;28;20117;-80
2021/12/11 09:21:34;;;;;;;1999.90;999.90;;;;;;;;;;4964595;28;20029;-81
2021/12/11 09:24:14;;;;;;;1506.82;539.53;;;;;;;;;;4981790;28;20053;-80
2021/12/11 09:26:47;;;;;;;1999.90;999.90;;;;;;;;;;4980787;28;20511;-80
2021/12/11 09:29:21;;;;;;;1776.78;767.45;;;;;;;;;;4963776;28;20034;-80
2021/12/11 09:32:19;;;;;;;1778.22;373.30;;;;;;;;;;4996869;28;20044;-80
2021/12/11 09:35:10;;;;;;;993.13;287.75;;;;;;;;;;4982494;28;20025;-80
2021/12/11 09:37:36;;;;;;;1784.13;774.80;;;;;;;;;;5004797;28;20042;-79
2021/12/11 09:40:25;;;;;;;1593.50;550.72;;;;;;;;;;4994615;28;20092;-80
2021/12/11 09:42:50;;;;;;;1999.90;999.90;;;;;;;;;;4983697;28;20083;-80
2021/12/11 09:45:21;;;;;;;1708.35;767.33;;;;;;;;;;5031361;28;20033;-80
2021/12/11 09:47:52;;;;;;;1418.25;546.33;;;;;;;;;;4998901;28;20091;-80
2021/12/11 09:50:29;;;;;;;1820.82;789.50;;;;;;;;;;4983276;28;20585;-80
2021/12/11 09:52:56;;;;;;;1999.90;999.90;;;;;;;;;;5000331;28;20037;-80
2021/12/11 09:55:25;;;;;;;1999.90;999.90;;;;;;;;;;4982696;28;20029;-80
2021/12/11 09:57:54;;;;;;;1999.90;999.90;;;;;;;;;;4982889;28;20079;-80
2021/12/11 10:00:24;;;;;;;1394.75;541.58;;;;;;;;;;4981776;28;20029;-80
2021/12/11 10:02:50;;;;;;;1876.00;793.28;;;;;;;;;;4982657;28;20041;-80
2021/12/11 10:05:35;;;;;;;1784.70;774.53;;;;;;;;;;4982359;28;20030;-80
2021/12/11 10:11:14;;;;;;;1999.90;999.90;;;;;;;;;;5028703;28;20554;-80
2021/12/11 10:13:58;;;;;;;1999.90;999.90;;;;;;;;;;5029891;28;20100;-80
2021/12/11 10:16:28;;;;;;;1442.68;112.82;;;;;;;;;;4974694;28;20136;-80
2021/12/11 10:18:53;;;;;;;1852.72;600.00;;;;;;;;;;4974645;28;20678;-80
2021/12/11 10:21:26;;;;;;;1999.90;999.90;;;;;;;;;;4975060;28;20044;-80
2021/12/11 10:23:54;;;;;;;1999.90;999.90;;;;;;;;;;4974778;28;20066;-80
2021/12/11 10:26:22;;;;;;;1901.85;796.47;;;;;;;;;;4974949;28;20552;-80
2021/12/11 10:28:51;;;;;;;1439.47;175.65;;;;;;;;;;4991025;28;20037;-80
2021/12/11 10:31:28;;;;;;;1832.78;789.88;;;;;;;;;;4973529;28;20026;-79
2021/12/11 10:33:57;;;;;;;1421.03;147.68;;;;;;;;;;4975648;28;20042;-80
2021/12/11 10:36:27;;;;;;;1999.90;999.90;;;;;;;;;;4974987;28;20034;-80
2021/12/11 10:38:54;;;;;;;1331.75;326.88;;;;;;;;;;4975177;28;20026;-80
2021/12/11 10:41:20;;;;;;;1413.47;197.57;;;;;;;;;;5003857;28;20021;-80
2021/12/11 10:43:53;;;;;;;1815.93;772.22;;;;;;;;;;4997446;28;20029;-80
2021/12/11 10:46:19;;;;;;;1602.88;152.00;;;;;;;;;;4998448;28;20400;-80
2021/12/11 10:48:46;;;;;;;1999.90;999.90;;;;;;;;;;4997956;28;20041;-80
2021/12/11 10:51:15;;;;;;;1881.32;591.70;;;;;;;;;;5014281;28;20038;-80
2021/12/11 10:53:42;;;;;;;1392.88;175.18;;;;;;;;;;4998481;28;20055;-80
2021/12/11 10:56:08;;;;;;;1768.63;200.23;;;;;;;;;;4997861;28;20021;-79
2021/12/11 10:58:37;;;;;;;1872.03;614.28;;;;;;;;;;4997089;28;20558;-80
2021/12/11 11:01:14;;;;;;;1534.95;175.73;;;;;;;;;;4981083;28;20033;-80
2021/12/11 11:03:44;;;;;;;1775.50;578.38;;;;;;;;;;5015120;28;20043;-80
2021/12/11 11:06:10;;;;;;;1665.40;569.00;;;;;;;;;;4981733;28;20377;-80
2021/12/11 11:08:36;;;;;;;1604.90;233.40;;;;;;;;;;4997398;28;20040;-79
2021/12/11 11:11:05;;;;;;;1448.60;109.32;;;;;;;;;;4981129;28;20029;-80
2021/12/11 11:13:31;;;;;;;1982.15;337.98;;;;;;;;;;5013974;28;20030;-80
2021/12/11 11:15:56;;;;;;;1622.90;277.58;;;;;;;;;;4981138;28;20057;-80
2021/12/11 11:18:24;;;;;;;1999.90;688.15;;;;;;;;;;4961789;28;20068;-80
2021/12/11 11:21:01;;;;;;;1361.97;312.42;;;;;;;;;;4994506;28;20038;-80
2021/12/11 11:23:26;;;;;;;1999.90;829.75;;;;;;;;;;4994589;28;20024;-80
2021/12/11 11:25:53;;;;;;;1561.45;579.47;;;;;;;;;;4977748;28;20038;-80
2021/12/11 11:28:21;;;;;;;1678.63;160.88;;;;;;;;;;4994250;28;20042;-80
2021/12/11 11:30:57;;;;;;;1999.90;808.88;;;;;;;;;;4977908;28;20104;-80
2021/12/11 11:33:24;;;;;;;1539.65;263.45;;;;;;;;;;4978558;28;20045;-80
2021/12/11 11:35:49;;;;;;;1999.90;999.90;;;;;;;;;;4994240;28;20030;-81
2021/12/11 11:38:18;;;;;;;1729.03;780.40;;;;;;;;;;4978005;28;20030;-80
2021/12/11 11:40:46;;;;;;;1999.90;999.90;;;;;;;;;;4984253;28;20042;-80
2021/12/11 11:43:11;;;;;;;1760.72;169.05;;;;;;;;;;4997096;28;20053;-80
2021/12/11 11:45:38;;;;;;;1332.68;524.80;;;;;;;;;;4980399;28;20446;-80
2021/12/11 11:48:03;;;;;;;993.00;100.93;;;;;;;;;;5013497;28;20830;-80
2021/12/11 11:50:32;;;;;;;1808.22;789.65;;;;;;;;;;5000094;28;20087;-83
2021/12/11 11:52:57;;;;;;;1999.90;999.90;;;;;;;;;;4984820;28;20064;-82
2021/12/11 11:55:27;;;;;;;1844.03;777.65;;;;;;;;;;4984942;28;20061;-82
2021/12/11 11:57:53;;;;;;;1789.95;768.05;;;;;;;;;;5000518;28;20112;-82
2021/12/11 12:00:43;;;;;;;1613.20;372.10;;;;;;;;;;5000858;28;20515;-82
2021/12/11 12:03:10;;;;;;;1767.47;560.55;;;;;;;;;;5017430;28;20045;-81
2021/12/11 12:05:37;;;;;;;1944.03;789.90;;;;;;;;;;5000933;28;20037;-81
2021/12/11 12:08:04;;;;;;;1559.47;169.60;;;;;;;;;;4984605;28;20053;-81
2021/12/11 12:10:29;;;;;;;1999.90;999.90;;;;;;;;;;4984194;28;20083;-81
2021/12/11 12:12:55;;;;;;;1999.90;999.90;;;;;;;;;;4999848;28;20394;-81
2021/12/11 12:15:27;;;;;;;1290.32;131.77;;;;;;;;;;5005311;28;20033;-80
2021/12/11 12:17:52;;;;;;;1584.68;538.83;;;;;;;;;;4981496;28;20037;-81
2021/12/11 12:20:18;;;;;;;1999.90;999.90;;;;;;;;;;4980857;28;20471;-81
2021/12/11 12:22:45;;;;;;;949.28;118.32;;;;;;;;;;4997062;28;20033;-81
2021/12/11 12:25:10;;;;;;;1999.90;999.90;;;;;;;;;;4980507;28;20128;-81
2021/12/11 12:27:36;;;;;;;1704.65;765.25;;;;;;;;;;4997298;28;20029;-80
2021/12/11 12:30:06;;;;;;;1919.63;603.78;;;;;;;;;;4996672;28;20029;-80
2021/12/11 12:32:32;;;;;;;1219.60;515.83;;;;;;;;;;4980749;28;20088;-80
2021/12/11 12:35:00;;;;;;;1999.90;999.90;;;;;;;;;;4964595;28;20038;-80
2021/12/11 12:37:26;;;;;;;1999.90;999.90;;;;;;;;;;4964921;28;20025;-81
2021/12/11 12:39:53;;;;;;;1862.07;780.00;;;;;;;;;;4977125;28;20018;-81
2021/12/11 12:42:33;;;;;;;1455.88;159.93;;;;;;;;;;4999649;28;20107;-81
2021/12/11 12:45:24;;;;;;;1999.90;999.90;;;;;;;;;;4985317;28;20044;-81
2021/12/11 12:47:56;;;;;;;1999.90;999.90;;;;;;;;;;5016463;28;20034;-81
2021/12/11 12:50:30;;;;;;;1795.30;771.75;;;;;;;;;;4984239;28;20030;-81
2021/12/11 12:52:57;;;;;;;1476.07;317.33;;;;;;;;;;5000238;28;20104;-81
2021/12/11 12:55:39;;;;;;;1999.90;999.90;;;;;;;;;;5016165;28;20030;-80
2021/12/11 12:58:09;;;;;;;1189.68;301.85;;;;;;;;;;4999977;28;20063;-81
2021/12/11 13:00:47;;;;;;;1697.78;773.25;;;;;;;;;;4999085;28;20068;-81
2021/12/11 13:03:16;;;;;;;1847.57;777.92;;;;;;;;;;5017325;28;20040;-80
2021/12/11 13:05:52;;;;;;;1692.65;772.83;;;;;;;;;;4983832;28;20029;-81
2021/12/11 13:08:21;;;;;;;1659.20;543.53;;;;;;;;;;5000199;28;20029;-81
2021/12/11 13:10:52;;;;;;;1999.90;999.90;;;;;;;;;;5015491;28;20041;-81
2021/12/11 13:13:18;;;;;;;1747.50;771.00;;;;;;;;;;4983316;28;20549;-81
2021/12/11 13:15:46;;;;;;;1867.65;778.28;;;;;;;;;;4965506;28;20034;-81
2021/12/11 13:18:20;;;;;;;1865.95;786.05;;;;;;;;;;4976641;28;20045;-80
2021/12/11 13:20:52;;;;;;;1212.25;137.73;;;;;;;;;;4976517;28;20034;-81
2021/12/11 13:23:18;;;;;;;1999.90;999.90;;;;;;;;;;5009006;28;20477;-81
2021/12/11 13:25:56;;;;;;;1090.43;507.60;;;;;;;;;;4976557;28;20064;-81
2021/12/11 13:28:23;;;;;;;1999.90;999.90;;;;;;;;;;4976434;28;20030;-81
2021/12/11 13:30:52;;;;;;;1687.68;764.72;;;;;;;;;;4976157;28;20035;-81
2021/12/11 13:33:19;;;;;;;1999.90;999.90;;;;;;;;;;4992756;28;20046;-80
2021/12/11 13:35:45;;;;;;;1999.90;999.90;;;;;;;;;;4976261;28;20033;-81
2021/12/11 13:38:12;;;;;;;1999.90;999.90;;;;;;;;;;4976144;28;20030;-80
2021/12/11 13:40:41;;;;;;;1048.28;116.05;;;;;;;;;;5017500;28;20040;-80
2021/12/11 13:43:06;;;;;;;1999.90;999.90;;;;;;;;;;4999220;28;20029;-81
2021/12/11 13:45:33;;;;;;;1999.90;999.90;;;;;;;;;;5015373;28;20041;-80
2021/12/11 13:47:59;;;;;;;808.45;64.97;;;;;;;;;;4982888;28;20025;-81
2021/12/11 13:50:30;;;;;;;1999.90;999.90;;;;;;;;;;4998621;28;20034;-81
2021/12/11 13:52:56;;;;;;;1999.90;999.90;;;;;;;;;;5015223;28;20026;-81
2021/12/11 13:55:21;;;;;;;1595.15;557.95;;;;;;;;;;4998601;28;20040;-80
2021/12/11 13:57:47;;;;;;;1866.72;788.17;;;;;;;;;;5014758;28;20025;-81
2021/12/11 14:00:21;;;;;;;1510.07;532.08;;;;;;;;;;5014466;28;20029;-80
2021/12/11 14:02:47;;;;;;;1435.75;526.78;;;;;;;;;;4999016;28;20048;-80
2021/12/11 14:05:12;;;;;;;1999.90;999.90;;;;;;;;;;4999080;28;20380;-81
2021/12/11 14:07:39;;;;;;;1703.10;766.05;;;;;;;;;;5014534;28;20022;-81
2021/12/11 14:10:19;;;;;;;1999.90;999.90;;;;;;;;;;4998396;28;20044;-81
2021/12/11 14:12:46;;;;;;;1826.05;773.78;;;;;;;;;;4999909;28;20034;-80
2021/12/11 14:15:12;;;;;;;1999.90;999.90;;;;;;;;;;4968491;28;20030;-81
2021/12/11 14:17:37;;;;;;;1766.78;769.63;;;;;;;;;;4991700;28;20041;-81